Time;durP1;ratioP1;P1;durP2;ratioP2;P2;SDS_P1;SDS_P2;PMS_P1;PMS_P2;Temp;Humidity;BMP_temperature;BMP_pressure;BME280_temperature;BME280_humidity;BME280_pressure;Samples;Min_cycle;Max_cycle;Signal;HPM_P1;HPM_P2
2022/01/14 00:01:34;;;;;;;77.18;21.52;;;;;;;0.12;100.00;99980.31;5063540;28;20165;-54
2022/01/14 00:04:00;;;;;;;70.28;19.73;;;;;;;0.09;100.00;99964.81;5066296;28;20027;-54
2022/01/14 00:06:25;;;;;;;62.78;19.02;;;;;;;0.15;100.00;99959.88;5064610;28;20087;-53
2022/01/14 00:08:54;;;;;;;69.38;19.50;;;;;;;-0.19;100.00;99968.16;5066884;28;20036;-55
2022/01/14 00:11:19;;;;;;;78.35;18.40;;;;;;;0.09;100.00;99969.06;5064441;28;20032;-52
2022/01/14 00:16:10;;;;;;;76.85;20.20;;;;;;;0.30;100.00;99963.75;5065388;28;20672;-53
2022/01/14 00:18:35;;;;;;;63.78;17.45;;;;;;;0.15;100.00;99961.59;5072807;28;20140;-53
2022/01/14 00:21:01;;;;;;;68.47;19.70;;;;;;;-0.07;100.00;99960.00;5063141;28;20040;-53
2022/01/14 00:23:31;;;;;;;69.10;19.85;;;;;;;0.43;100.00;99958.19;5065812;28;20035;-55
2022/01/14 00:34:10;;;;;;;77.88;19.88;;;;;;;-0.01;100.00;99937.09;5066086;28;20112;-53
2022/01/14 00:36:36;;;;;;;67.70;19.15;;;;;;;0.25;100.00;99934.50;5063660;28;20753;-54
2022/01/14 00:39:02;;;;;;;65.90;19.52;;;;;;;0.28;100.00;99930.34;5065735;28;20685;-54
2022/01/14 00:41:27;;;;;;;74.43;18.60;;;;;;;0.33;100.00;99933.94;5062465;28;20074;-54
2022/01/14 00:44:00;;;;;;;63.25;17.50;;;;;;;0.43;100.00;99935.06;5064821;28;20626;-54
2022/01/14 00:46:26;;;;;;;61.60;16.15;;;;;;;0.49;100.00;99926.69;5065517;28;20035;-54
2022/01/14 00:48:51;;;;;;;69.68;19.73;;;;;;;0.16;100.00;99928.25;5063657;28;20402;-55
2022/01/14 00:51:16;;;;;;;72.75;19.25;;;;;;;0.24;100.00;99925.06;5064043;28;20036;-55
2022/01/14 00:53:42;;;;;;;72.55;20.88;;;;;;;0.17;100.00;99930.00;5064173;28;20695;-54
2022/01/14 00:56:20;;;;;;;89.78;20.95;;;;;;;-0.03;100.00;99928.50;5064672;28;20029;-54
2022/01/14 01:01:30;;;;;;;74.90;18.67;;;;;;;0.07;100.00;99912.56;5064716;28;20085;-52
2022/01/14 01:03:55;;;;;;;65.35;18.65;;;;;;;0.03;100.00;99913.28;5066892;28;20028;-51
2022/01/14 01:06:21;;;;;;;69.43;19.30;;;;;;;0.17;100.00;99901.78;5064249;28;20052;-51
2022/01/14 01:08:48;;;;;;;68.93;19.85;;;;;;;-0.17;100.00;99901.50;5063907;28;20043;-53
2022/01/14 01:11:14;;;;;;;66.40;18.88;;;;;;;0.04;100.00;99909.91;5065625;28;20075;-51
2022/01/14 01:13:47;;;;;;;65.03;18.75;;;;;;;0.13;100.00;99899.03;5067686;28;20504;-51
2022/01/14 01:16:12;;;;;;;71.45;19.35;;;;;;;0.03;100.00;99905.59;5067669;28;20044;-53
2022/01/14 01:18:38;;;;;;;63.13;17.05;;;;;;;-0.13;100.00;99905.91;5068430;28;20033;-53
2022/01/14 01:21:03;;;;;;;83.93;17.30;;;;;;;-0.51;100.00;99905.53;5067398;28;20067;-52
2022/01/14 01:23:29;;;;;;;68.07;19.42;;;;;;;-0.07;100.00;99901.00;5068538;28;20024;-56
2022/01/14 01:26:02;;;;;;;75.70;18.13;;;;;;;-0.04;100.00;99896.84;5068852;28;20148;-53
2022/01/14 01:28:28;;;;;;;89.30;17.80;;;;;;;0.05;100.00;99898.81;5067842;28;20720;-52
2022/01/14 01:33:21;;;;;;;132.60;20.30;;;;;;;-0.22;100.00;99902.25;5065298;28;20040;-53
2022/01/14 01:35:47;;;;;;;66.78;18.75;;;;;;;0.06;100.00;99898.00;5067999;28;20067;-52
2022/01/14 01:38:16;;;;;;;166.48;20.33;;;;;;;-0.07;100.00;99901.00;5069458;28;20020;-52
2022/01/14 01:40:44;;;;;;;64.65;18.17;;;;;;;-0.26;100.00;99894.38;5064910;28;20059;-53
2022/01/14 01:43:12;;;;;;;62.15;17.85;;;;;;;-0.23;100.00;99885.09;5067635;28;20509;-52
2022/01/14 01:45:37;;;;;;;114.18;20.20;;;;;;;-0.47;100.00;99881.75;5065655;28;20043;-53
2022/01/14 01:48:03;;;;;;;59.08;16.45;;;;;;;-0.17;100.00;99873.31;5066336;28;20020;-52
2022/01/14 01:50:30;;;;;;;58.85;17.00;;;;;;;-0.08;100.00;99860.75;5066632;28;20040;-53
2022/01/14 01:52:56;;;;;;;53.45;12.40;;;;;;;0.05;100.00;99864.59;5068316;28;20020;-52
2022/01/14 01:55:22;;;;;;;237.77;25.75;;;;;;;0.16;100.00;99863.22;5066079;28;20028;-53
2022/01/14 01:57:52;;;;;;;63.92;19.48;;;;;;;-0.03;100.00;99861.78;5067438;28;20343;-52
2022/01/14 02:00:22;;;;;;;57.65;16.95;;;;;;;0.05;100.00;99862.88;5065522;28;20040;-53
2022/01/14 02:02:49;;;;;;;68.32;17.80;;;;;;;0.17;100.00;99863.28;5068670;28;20282;-53
2022/01/14 02:05:16;;;;;;;64.07;18.15;;;;;;;-0.20;100.00;99864.69;5066626;28;20032;-52
2022/01/14 02:07:42;;;;;;;52.65;17.00;;;;;;;0.37;100.00;99855.31;5067271;28;20078;-53
2022/01/14 02:10:08;;;;;;;76.22;19.25;;;;;;;0.31;100.00;99873.06;5068146;28;20027;-53
2022/01/14 02:12:47;;;;;;;58.33;17.75;;;;;;;-0.25;100.00;99866.22;5068624;28;20029;-53
2022/01/14 02:23:22;;;;;;;56.40;16.58;;;;;;;-0.02;100.00;99868.66;5068985;28;20063;-52
2022/01/14 02:25:48;;;;;;;51.35;15.95;;;;;;;0.03;100.00;99856.84;5067816;28;20545;-52
2022/01/14 02:28:16;;;;;;;52.83;17.13;;;;;;;-0.10;100.00;99853.03;5066713;28;20032;-52
2022/01/14 02:30:43;;;;;;;51.80;16.13;;;;;;;-0.27;100.00;99857.63;5065485;28;20048;-54
2022/01/14 02:33:09;;;;;;;48.22;16.58;;;;;;;-0.22;100.00;99845.81;5066416;28;20052;-53
2022/01/14 02:35:37;;;;;;;52.08;17.02;;;;;;;0.09;100.00;99836.53;5066441;28;20039;-52
2022/01/14 02:38:03;;;;;;;54.92;17.45;;;;;;;-0.23;100.00;99833.81;5065182;28;20077;-52
2022/01/14 02:40:29;;;;;;;58.38;16.45;;;;;;;-0.09;100.00;99841.06;5066269;28;20036;-53
2022/01/14 02:42:59;;;;;;;52.85;15.98;;;;;;;0.12;100.00;99841.72;5067409;28;20093;-53
2022/01/14 02:45:28;;;;;;;54.10;17.27;;;;;;;-0.42;100.00;99842.59;5066132;28;20039;-52
2022/01/14 02:47:54;;;;;;;47.08;15.48;;;;;;;-0.17;100.00;99828.00;5067147;28;20031;-52
2022/01/14 02:50:22;;;;;;;50.80;15.32;;;;;;;-0.35;100.00;99833.44;5065967;28;20592;-52
2022/01/14 02:55:28;;;;;;;44.55;13.27;;;;;;;-0.31;100.00;99825.00;5066039;28;20032;-52
2022/01/14 02:57:56;;;;;;;44.88;14.55;;;;;;;-0.08;100.00;99832.53;5067207;28;20024;-54
2022/01/14 03:00:25;;;;;;;50.63;16.42;;;;;;;-0.11;100.00;99822.19;5064407;28;20482;-52
2022/01/14 03:02:51;;;;;;;53.95;16.65;;;;;;;-0.05;100.00;99822.38;5064880;28;20127;-54
2022/01/14 03:05:18;;;;;;;38.92;11.23;;;;;;;0.27;100.00;99815.66;5065384;28;20787;-52
2022/01/14 03:07:45;;;;;;;38.63;12.38;;;;;;;0.08;100.00;99815.94;5065388;28;20034;-53
2022/01/14 03:10:12;;;;;;;52.58;16.45;;;;;;;-0.42;100.00;99823.81;5064434;28;20025;-54
2022/01/14 03:12:39;;;;;;;47.75;14.63;;;;;;;-0.15;100.00;99815.22;5066227;28;20143;-52
2022/01/14 03:15:05;;;;;;;45.22;13.98;;;;;;;-0.17;100.00;99804.91;5066372;28;20038;-53
2022/01/14 03:17:31;;;;;;;39.83;13.15;;;;;;;-0.04;100.00;99803.59;5065656;28;20730;-53
2022/01/14 03:19:58;;;;;;;46.03;15.02;;;;;;;-0.20;100.00;99798.00;5065937;28;20029;-52
2022/01/14 03:22:35;;;;;;;46.85;14.52;;;;;;;-0.03;100.00;99795.09;5064195;28;20056;-54
2022/01/14 03:27:46;;;;;;;43.08;13.32;;;;;;;0.04;100.00;99786.75;5066173;28;20890;-53
2022/01/14 03:30:12;;;;;;;52.75;16.40;;;;;;;-0.29;100.00;99787.47;5064986;28;20028;-53
2022/01/14 03:32:39;;;;;;;50.45;16.02;;;;;;;-0.42;100.00;99782.78;5065096;28;20021;-53
2022/01/14 03:35:05;;;;;;;54.78;17.38;;;;;;;-0.98;100.00;99773.25;5067528;28;20073;-52
2022/01/14 03:37:31;;;;;;;48.13;16.00;;;;;;;-0.64;100.00;99774.38;5067315;28;20069;-52
2022/01/14 03:39:56;;;;;;;53.53;17.05;;;;;;;-1.00;100.00;99789.41;5064917;28;20562;-53
2022/01/14 03:42:21;;;;;;;48.95;16.35;;;;;;;-0.69;100.00;99777.63;5066644;28;20535;-53
2022/01/14 03:44:47;;;;;;;56.33;17.40;;;;;;;-0.65;100.00;99762.38;5066214;28;20351;-52
2022/01/14 03:47:12;;;;;;;50.65;16.40;;;;;;;-0.48;100.00;99774.88;5066160;28;20439;-52
2022/01/14 03:49:37;;;;;;;48.50;15.73;;;;;;;-0.62;100.00;99777.88;5066432;28;20656;-53
2022/01/14 03:52:03;;;;;;;53.40;16.60;;;;;;;-0.68;100.00;99776.78;5065420;28;20579;-53
2022/01/14 03:54:30;;;;;;;50.28;15.98;;;;;;;-0.59;100.00;99783.09;5067543;28;20029;-53
2022/01/14 03:56:55;;;;;;;50.13;15.93;;;;;;;-0.74;100.00;99786.84;5063953;28;20037;-52
2022/01/14 03:59:20;;;;;;;53.30;16.65;;;;;;;-1.02;100.00;99786.78;5066262;28;20035;-52
2022/01/14 04:01:46;;;;;;;53.65;15.95;;;;;;;-0.64;100.00;99779.50;5064111;28;20119;-52
2022/01/14 04:04:11;;;;;;;52.95;16.20;;;;;;;-0.73;100.00;99789.47;5064755;28;20039;-54
2022/01/14 04:06:37;;;;;;;50.22;16.08;;;;;;;-0.83;100.00;99782.28;5063571;28;20459;-52
2022/01/14 04:09:02;;;;;;;56.88;17.17;;;;;;;-1.32;100.00;99780.59;5065103;28;20032;-52
2022/01/14 04:11:29;;;;;;;49.28;16.45;;;;;;;-1.15;100.00;99787.19;5065976;28;20059;-51
2022/01/14 04:13:56;;;;;;;53.83;17.08;;;;;;;-0.99;100.00;99786.91;5065544;28;20152;-54
2022/01/14 04:16:24;;;;;;;57.05;17.05;;;;;;;-0.79;100.00;99784.13;5062789;28;20131;-53
2022/01/14 04:18:50;;;;;;;53.60;16.05;;;;;;;-0.66;100.00;99785.41;5063634;28;20493;-52
2022/01/14 04:21:16;;;;;;;54.63;16.90;;;;;;;-0.73;100.00;99781.78;5063735;28;20048;-52
2022/01/14 04:23:42;;;;;;;53.60;15.93;;;;;;;-0.98;100.00;99778.38;5064697;28;20056;-52
2022/01/14 04:26:07;;;;;;;55.10;17.15;;;;;;;-0.95;100.00;99792.16;5064977;28;20312;-52
2022/01/14 04:28:36;;;;;;;59.30;17.80;;;;;;;-1.27;100.00;99789.31;5064240;28;20064;-53
2022/01/14 04:31:07;;;;;;;68.07;19.05;;;;;;;-1.47;100.00;99781.81;5062425;28;20060;-52
2022/01/14 04:33:34;;;;;;;62.60;18.83;;;;;;;-1.58;100.00;99776.31;5064610;28;20052;-51
2022/01/14 04:36:00;;;;;;;63.80;18.55;;;;;;;-1.42;100.00;99785.41;5061438;28;20032;-52
2022/01/14 04:38:28;;;;;;;68.22;17.92;;;;;;;-1.19;100.00;99787.91;5065613;28;20040;-53
2022/01/14 04:40:53;;;;;;;68.55;18.05;;;;;;;-1.46;100.00;99783.56;5063106;28;20039;-52
2022/01/14 04:43:20;;;;;;;61.55;17.52;;;;;;;-1.40;100.00;99780.34;5063202;28;20024;-52
2022/01/14 04:48:25;;;;;;;70.82;18.95;;;;;;;-1.54;100.00;99774.75;5065252;28;20032;-53
2022/01/14 04:50:51;;;;;;;73.43;20.10;;;;;;;-1.46;100.00;99768.19;5064780;28;20040;-53
2022/01/14 04:53:16;;;;;;;80.80;20.02;;;;;;;-1.22;100.00;99763.06;5062626;28;20052;-53
2022/01/14 04:55:42;;;;;;;68.00;18.30;;;;;;;-1.18;100.00;99758.91;5064575;28;20136;-52
2022/01/14 04:58:07;;;;;;;69.15;18.38;;;;;;;-1.35;100.00;99768.56;5064641;28;20654;-52
2022/01/14 05:00:32;;;;;;;81.93;19.35;;;;;;;-1.29;100.00;99760.25;5064122;28;20119;-53
2022/01/14 05:02:58;;;;;;;95.70;20.35;;;;;;;-1.14;100.00;99765.88;5065092;28;20046;-52
2022/01/14 05:05:27;;;;;;;139.00;20.05;;;;;;;-1.22;100.00;99757.94;5062764;28;20048;-53
2022/01/14 05:07:53;;;;;;;76.38;17.65;;;;;;;-1.47;100.00;99756.22;5064403;28;20024;-53
2022/01/14 05:12:48;;;;;;;62.10;17.92;;;;;;;-1.37;100.00;99763.41;5062519;28;20028;-52
2022/01/14 05:15:15;;;;;;;66.55;16.60;;;;;;;-1.33;100.00;99753.28;5066632;28;20030;-52
2022/01/14 05:17:41;;;;;;;69.15;16.90;;;;;;;-1.31;100.00;99756.75;5063464;28;20021;-54
2022/01/14 05:20:07;;;;;;;71.70;17.27;;;;;;;-1.32;100.00;99755.00;5069530;28;20032;-52
2022/01/14 05:22:32;;;;;;;94.50;17.50;;;;;;;-1.33;100.00;99754.13;5065091;28;20024;-52
2022/01/14 05:24:57;;;;;;;64.38;18.17;;;;;;;-1.22;100.00;99762.19;5064842;28;20035;-52
2022/01/14 05:27:23;;;;;;;66.88;18.15;;;;;;;-1.37;100.00;99753.16;5064893;28;20043;-53
2022/01/14 05:29:48;;;;;;;64.55;17.52;;;;;;;-1.14;100.00;99763.31;5062407;28;20032;-54
2022/01/14 05:32:15;;;;;;;64.00;17.63;;;;;;;-1.58;100.00;99758.41;5063607;28;20047;-52
2022/01/14 05:34:45;;;;;;;66.80;17.38;;;;;;;-1.52;100.00;99762.88;5063768;28;20028;-53
2022/01/14 05:37:11;;;;;;;69.75;17.73;;;;;;;-1.21;100.00;99756.28;5063916;28;20051;-52
2022/01/14 05:39:37;;;;;;;61.53;17.95;;;;;;;-1.32;100.00;99755.00;5064079;28;20050;-53
2022/01/14 05:42:03;;;;;;;67.95;18.55;;;;;;;-1.28;100.00;99751.75;5063750;28;20024;-54
2022/01/14 05:44:30;;;;;;;71.35;17.88;;;;;;;-1.63;100.00;99746.25;5072384;28;20028;-52
2022/01/14 05:46:57;;;;;;;65.47;17.73;;;;;;;-1.53;100.00;99748.31;5065080;28;20041;-52
2022/01/14 05:49:23;;;;;;;63.05;17.63;;;;;;;-1.38;100.00;99746.31;5062700;28;20040;-55
2022/01/14 05:51:49;;;;;;;59.90;16.85;;;;;;;-1.42;100.00;99736.75;5061946;28;20037;-53
2022/01/14 05:54:16;;;;;;;48.92;14.23;;;;;;;-1.46;100.00;99734.06;5062005;28;20719;-52
2022/01/14 05:56:42;;;;;;;58.03;16.95;;;;;;;-1.45;100.00;99733.22;5066778;28;20078;-55
2022/01/14 05:59:08;;;;;;;63.03;18.95;;;;;;;-1.54;100.00;99728.69;5069172;28;20382;-53
2022/01/14 06:01:33;;;;;;;67.82;19.48;;;;;;;-1.56;100.00;99735.44;5065284;28;20035;-54
2022/01/14 06:04:03;;;;;;;48.70;15.13;;;;;;;-1.41;100.00;99725.72;5071276;28;20051;-54
2022/01/14 06:06:30;;;;;;;48.10;14.73;;;;;;;-1.47;100.00;99724.63;5070976;28;20070;-54
2022/01/14 06:08:56;;;;;;;58.75;16.73;;;;;;;-1.75;100.00;99729.66;5070739;28;20047;-55
2022/01/14 06:11:21;;;;;;;47.63;14.50;;;;;;;-1.41;100.00;99735.97;5069499;28;20044;-55
2022/01/14 06:13:47;;;;;;;56.85;16.25;;;;;;;-1.73;100.00;99731.38;5069911;28;20032;-54
2022/01/14 06:16:13;;;;;;;48.25;15.52;;;;;;;-1.76;100.00;99725.34;5071953;28;20594;-53
2022/01/14 06:18:39;;;;;;;70.60;17.08;;;;;;;-1.83;100.00;99725.94;5072798;28;20043;-53
2022/01/14 06:21:05;;;;;;;116.43;18.13;;;;;;;-1.89;100.00;99720.59;5070619;28;20036;-55
2022/01/14 06:23:30;;;;;;;557.22;26.42;;;;;;;-2.09;100.00;99729.25;5070735;28;20024;-54
2022/01/14 06:25:56;;;;;;;57.25;13.23;;;;;;;-1.94;100.00;99724.69;5070128;28;20036;-54
2022/01/14 06:28:21;;;;;;;89.70;18.27;;;;;;;-1.88;100.00;99727.44;5070588;28;20077;-53
2022/01/14 06:30:47;;;;;;;89.18;18.50;;;;;;;-1.96;100.00;99728.88;5069335;28;20094;-55
2022/01/14 06:33:13;;;;;;;53.80;15.93;;;;;;;-2.00;100.00;99727.88;5069114;28;20025;-54
2022/01/14 06:35:38;;;;;;;59.55;15.70;;;;;;;-1.94;100.00;99724.69;5070267;28;20131;-55
2022/01/14 06:38:04;;;;;;;51.22;15.52;;;;;;;-1.86;100.00;99725.81;5071678;28;20155;-54
2022/01/14 06:40:30;;;;;;;59.63;16.38;;;;;;;-1.80;100.00;99731.19;5070364;28;20422;-53
2022/01/14 06:42:56;;;;;;;52.75;15.98;;;;;;;-1.79;100.00;99732.91;5069383;28;20024;-54
2022/01/14 06:45:22;;;;;;;44.28;13.20;;;;;;;-1.80;100.00;99741.41;5068736;28;20032;-55
2022/01/14 06:47:48;;;;;;;55.47;16.23;;;;;;;-1.91;100.00;99734.13;5069252;28;20039;-53
2022/01/14 06:50:13;;;;;;;52.45;15.73;;;;;;;-1.97;100.00;99732.22;5068932;28;20034;-55
2022/01/14 06:52:39;;;;;;;57.70;17.40;;;;;;;-1.98;100.00;99730.50;5070178;28;20024;-53
2022/01/14 06:55:05;;;;;;;59.85;18.52;;;;;;;-1.99;100.00;99733.88;5069467;28;20410;-54
2022/01/14 06:57:31;;;;;;;61.13;18.70;;;;;;;-2.15;100.00;99728.19;5069557;28;20937;-54
2022/01/14 06:59:56;;;;;;;56.70;17.35;;;;;;;-1.98;100.00;99725.38;5068779;28;20028;-55
2022/01/14 07:02:22;;;;;;;48.95;16.05;;;;;;;-2.35;100.00;99741.91;5069421;28;20045;-56
2022/01/14 07:04:47;;;;;;;52.50;15.73;;;;;;;-1.98;100.00;99727.94;5069180;28;20020;-54
2022/01/14 07:07:12;;;;;;;45.33;13.82;;;;;;;-1.80;100.00;99733.72;5070254;28;20102;-54
2022/01/14 07:09:55;;;;;;;42.83;12.07;;;;;;;-1.75;100.00;99728.75;5069259;28;20090;-54
2022/01/14 07:12:28;;;;;;;40.60;13.82;;;;;;;-2.03;100.00;99738.00;5068671;28;20136;-55
2022/01/14 07:14:54;;;;;;;39.42;12.50;;;;;;;-1.71;100.00;99739.97;5072000;28;20031;-54
2022/01/14 07:17:20;;;;;;;38.65;11.30;;;;;;;-1.85;100.00;99734.38;5070655;28;20088;-55
2022/01/14 07:19:48;;;;;;;41.97;12.40;;;;;;;-1.91;100.00;99737.59;5070186;28;20063;-55
2022/01/14 07:22:14;;;;;;;56.17;15.50;;;;;;;-1.83;100.00;99741.28;5067329;28;20040;-55
2022/01/14 07:24:39;;;;;;;55.08;15.95;;;;;;;-1.71;100.00;99740.84;5069694;28;20085;-54
2022/01/14 07:27:05;;;;;;;47.22;14.95;;;;;;;-1.80;100.00;99726.06;5068408;28;20037;-54
2022/01/14 07:29:31;;;;;;;53.03;15.70;;;;;;;-1.69;100.00;99733.22;5070309;28;20021;-53
2022/01/14 07:31:56;;;;;;;53.30;15.18;;;;;;;-1.75;100.00;99731.31;5067848;28;20040;-54
2022/01/14 07:34:21;;;;;;;52.20;16.17;;;;;;;-1.55;100.00;99732.03;5068244;28;20401;-54
2022/01/14 07:36:47;;;;;;;50.65;15.98;;;;;;;-1.34;100.00;99723.34;5066870;28;20036;-55
2022/01/14 07:39:12;;;;;;;55.30;15.48;;;;;;;-1.05;100.00;99715.00;5068110;28;20020;-55
2022/01/14 07:41:37;;;;;;;44.30;14.80;;;;;;;-0.07;100.00;99724.84;5071309;28;20241;-54
2022/01/14 07:44:04;;;;;;;50.63;15.82;;;;;;;-0.11;100.00;99723.03;5067158;28;20036;-54
2022/01/14 07:46:29;;;;;;;170.00;22.02;;;;;;;0.99;100.00;99725.97;5067488;28;20048;-54
2022/01/14 07:48:54;;;;;;;277.45;27.30;;;;;;;1.08;100.00;99721.94;5071252;28;20030;-56
2022/01/14 07:51:20;;;;;;;44.40;15.52;;;;;;;0.17;100.00;99724.69;5066699;28;20278;-55
2022/01/14 07:53:45;;;;;;;47.10;16.60;;;;;;;0.40;100.00;99719.31;5069817;28;20024;-53
2022/01/14 07:56:12;;;;;;;50.63;15.95;;;;;;;0.38;100.00;99716.69;5067843;28;20085;-52
2022/01/14 07:58:40;;;;;;;46.33;15.65;;;;;;;0.19;100.00;99719.59;5067826;28;20020;-53
2022/01/14 08:01:05;;;;;;;47.50;15.27;;;;;;;-0.08;100.00;99712.84;5068814;28;20043;-53
2022/01/14 08:03:31;;;;;;;46.75;16.00;;;;;;;-0.06;100.00;99720.59;5067507;28;20023;-52
2022/01/14 08:05:58;;;;;;;45.83;16.50;;;;;;;-0.02;100.00;99719.84;5068387;28;20031;-52
2022/01/14 08:08:24;;;;;;;47.67;15.95;;;;;;;-0.10;100.00;99731.59;5068511;28;20128;-52
2022/01/14 08:10:50;;;;;;;35.65;11.13;;;;;;;0.18;100.00;99729.00;5068646;28;20139;-51
2022/01/14 08:13:15;;;;;;;44.83;15.13;;;;;;;-0.29;100.00;99718.22;5068233;28;20028;-51
2022/01/14 08:15:41;;;;;;;43.67;15.18;;;;;;;-0.05;100.00;99725.75;5067320;28;20473;-55
2022/01/14 08:18:07;;;;;;;45.65;15.70;;;;;;;-0.30;100.00;99726.72;5075243;28;20016;-55
2022/01/14 08:20:33;;;;;;;39.83;14.10;;;;;;;0.03;100.00;99731.13;5069014;28;20653;-54
2022/01/14 08:22:59;;;;;;;43.85;14.40;;;;;;;0.05;100.00;99726.03;5068776;28;20036;-54
2022/01/14 08:25:25;;;;;;;46.25;15.23;;;;;;;0.17;100.00;99724.69;5068150;28;20084;-54
2022/01/14 08:27:50;;;;;;;44.40;15.77;;;;;;;-0.02;100.00;99731.00;5069637;28;20020;-55
2022/01/14 08:30:16;;;;;;;46.83;16.02;;;;;;;0.43;100.00;99734.81;5067584;28;20024;-55
2022/01/14 08:32:41;;;;;;;43.97;15.38;;;;;;;0.87;100.00;99732.56;5069195;28;20040;-54
2022/01/14 08:35:07;;;;;;;45.60;15.80;;;;;;;0.70;100.00;99723.53;5068410;28;20397;-54
2022/01/14 08:37:33;;;;;;;42.53;14.98;;;;;;;0.89;100.00;99730.88;5068681;28;20089;-55
2022/01/14 08:39:59;;;;;;;51.40;16.40;;;;;;;0.57;100.00;99723.22;5068840;28;20337;-54
2022/01/14 08:42:24;;;;;;;50.45;16.73;;;;;;;0.69;100.00;99726.94;5069699;28;20068;-55
2022/01/14 08:44:49;;;;;;;48.67;16.27;;;;;;;0.47;100.00;99726.34;5066237;28;20474;-55
2022/01/14 08:47:15;;;;;;;43.42;15.35;;;;;;;0.16;100.00;99728.06;5067333;28;20602;-54
2022/01/14 08:49:42;;;;;;;53.35;15.88;;;;;;;0.56;100.00;99730.88;5065848;28;20635;-54
2022/01/14 08:52:10;;;;;;;51.50;17.45;;;;;;;0.87;100.00;99730.00;5067841;28;20043;-54
2022/01/14 08:54:35;;;;;;;43.50;15.00;;;;;;;0.72;100.00;99717.63;5067120;28;20023;-54
2022/01/14 08:57:04;;;;;;;49.97;16.15;;;;;;;1.07;100.00;99722.78;5068273;28;20360;-54
2022/01/14 08:59:30;;;;;;;46.92;15.25;;;;;;;1.13;100.00;99715.22;5067772;28;20028;-52
2022/01/14 09:01:56;;;;;;;41.17;14.38;;;;;;;1.28;100.00;99719.00;5065607;28;20170;-52
2022/01/14 09:04:22;;;;;;;43.00;14.20;;;;;;;1.27;100.00;99718.13;5066892;28;20155;-52
2022/01/14 09:06:47;;;;;;;54.72;14.70;;;;;;;1.42;100.00;99711.63;5067831;28;20462;-53
2022/01/14 09:09:13;;;;;;;38.42;13.90;;;;;;;1.83;100.00;99703.94;5066186;28;20028;-52
2022/01/14 09:11:38;;;;;;;44.67;16.17;;;;;;;1.12;100.00;99708.34;5066682;28;20114;-52
2022/01/14 09:14:03;;;;;;;41.35;13.63;;;;;;;1.73;100.00;99716.59;5067295;28;20036;-52
2022/01/14 09:16:29;;;;;;;41.20;15.35;;;;;;;1.74;100.00;99715.75;5066438;28;20465;-52
2022/01/14 09:18:54;;;;;;;45.55;15.75;;;;;;;1.63;100.00;99717.22;5067202;28;20393;-52
2022/01/14 09:21:20;;;;;;;49.90;16.45;;;;;;;1.63;100.00;99712.06;5067501;28;20135;-52
2022/01/14 09:23:54;;;;;;;46.05;16.75;;;;;;;1.44;100.00;99704.81;5067014;28;20105;-52
2022/01/14 09:26:20;;;;;;;49.13;16.17;;;;;;;1.72;100.00;99720.00;5067616;28;20085;-52
2022/01/14 09:28:46;;;;;;;41.80;15.40;;;;;;;1.46;100.00;99723.69;5068572;28;20029;-51
2022/01/14 09:31:11;;;;;;;47.08;15.98;;;;;;;1.54;100.00;99717.00;5068786;28;20513;-52
2022/01/14 09:33:38;;;;;;;40.28;14.68;;;;;;;1.72;100.00;99726.84;5071293;28;20398;-52
2022/01/14 09:36:04;;;;;;;41.33;12.23;;;;;;;2.54;100.00;99731.09;5069975;28;20510;-52
2022/01/14 09:38:30;;;;;;;46.42;18.08;;;;;;;1.53;100.00;99723.00;5071902;28;20035;-52
2022/01/14 09:40:57;;;;;;;42.85;16.73;;;;;;;1.51;100.00;99737.53;5069029;28;20061;-53
2022/01/14 09:43:22;;;;;;;44.63;16.92;;;;;;;2.29;100.00;99728.91;5071070;28;20224;-51
2022/01/14 09:45:51;;;;;;;45.40;15.35;;;;;;;2.57;100.00;99728.59;5070939;28;20609;-52
2022/01/14 09:48:17;;;;;;;50.80;15.90;;;;;;;2.20;100.00;99726.16;5071634;28;20132;-51
2022/01/14 09:50:43;;;;;;;42.80;15.65;;;;;;;1.86;100.00;99724.59;5066952;28;20612;-52
2022/01/14 09:53:11;;;;;;;45.17;15.73;;;;;;;2.39;100.00;99722.25;5071063;28;20654;-54
2022/01/14 09:55:37;;;;;;;45.35;16.02;;;;;;;1.89;100.00;99714.34;5072217;28;20040;-52
2022/01/14 09:58:02;;;;;;;39.35;15.45;;;;;;;2.38;100.00;99720.50;5070669;28;20031;-52
2022/01/14 10:00:27;;;;;;;43.38;14.98;;;;;;;2.48;100.00;99725.00;5068582;28;20068;-52
2022/01/14 10:02:53;;;;;;;39.13;13.52;;;;;;;2.41;100.00;99710.28;5071347;28;20036;-53
2022/01/14 10:05:55;;;;;;;40.25;13.95;;;;;;;2.67;100.00;99708.19;5071125;28;20474;-52
2022/01/14 10:08:25;;;;;;;39.92;14.65;;;;;;;2.75;100.00;99710.03;5058639;28;20051;-54
2022/01/14 10:10:55;;;;;;;37.13;12.10;;;;;;;2.82;100.00;99697.28;5068849;28;20043;-55
2022/01/14 10:13:26;;;;;;;41.08;14.93;;;;;;;2.74;100.00;99704.03;5071362;28;20025;-56
2022/01/14 10:15:58;;;;;;;43.42;15.95;;;;;;;2.61;100.00;99696.88;5069208;28;20891;-54
2022/01/14 10:18:24;;;;;;;37.58;14.98;;;;;;;3.10;100.00;99695.16;5069905;28;20124;-54
2022/01/14 10:20:50;;;;;;;39.95;16.17;;;;;;;3.31;100.00;99692.06;5071454;28;20123;-54
2022/01/14 10:23:17;;;;;;;39.33;15.27;;;;;;;3.36;100.00;99684.38;5070787;28;20085;-54
2022/01/14 10:25:56;;;;;;;40.47;15.63;;;;;;;3.54;100.00;99687.22;5069885;28;20048;-55
2022/01/14 10:28:22;;;;;;;44.17;15.38;;;;;;;3.72;100.00;99683.19;5072346;28;20020;-55
2022/01/14 10:30:49;;;;;;;41.15;15.23;;;;;;;3.56;100.00;99682.97;5069490;28;20117;-55
2022/01/14 10:33:20;;;;;;;41.72;15.68;;;;;;;3.55;100.00;99670.91;5071382;28;20149;-54
2022/01/14 10:35:46;;;;;;;38.83;14.35;;;;;;;3.57;100.00;99673.53;5070686;28;20123;-55
2022/01/14 10:38:14;;;;;;;33.35;12.05;;;;;;;4.13;100.00;99660.47;5070236;28;20016;-54
2022/01/14 10:40:57;;;;;;;29.83;10.60;;;;;;;4.49;100.00;99658.28;5070107;28;20056;-54
2022/01/14 10:43:35;;;;;;;32.80;11.45;;;;;;;3.77;100.00;99666.06;5067517;28;20505;-54
2022/01/14 10:46:05;;;;;;;40.15;15.05;;;;;;;3.75;100.00;99660.88;5069379;28;20630;-55
2022/01/14 10:48:33;;;;;;;35.08;14.27;;;;;;;4.23;100.00;99661.44;5069569;28;20025;-55
2022/01/14 10:51:04;;;;;;;32.95;12.73;;;;;;;4.67;100.00;99660.16;5069954;28;20082;-54
2022/01/14 10:53:53;;;;;;;32.15;13.68;;;;;;;4.31;100.00;99654.63;5070544;28;20032;-55
2022/01/14 10:56:22;;;;;;;34.75;12.93;;;;;;;4.72;100.00;99641.25;5069412;28;20602;-54
2022/01/14 10:58:50;;;;;;;30.33;10.88;;;;;;;5.47;100.00;99633.19;5071219;28;20869;-56
2022/01/14 11:01:22;;;;;;;38.17;14.55;;;;;;;4.62;100.00;99636.88;5068972;28;20043;-54
2022/01/14 11:03:56;;;;;;;43.40;16.85;;;;;;;5.04;100.00;99630.31;5069597;28;21096;-55
2022/01/14 11:06:24;;;;;;;21.70;7.57;;;;;;;6.11;100.00;99630.03;5069729;28;20046;-55
2022/01/14 11:09:00;;;;;;;41.30;13.93;;;;;;;6.74;100.00;99632.75;5069795;28;20036;-55
2022/01/14 11:11:31;;;;;;;39.55;14.88;;;;;;;6.79;100.00;99626.72;5068730;28;20036;-54
2022/01/14 11:13:57;;;;;;;40.50;16.90;;;;;;;5.48;100.00;99626.31;5069250;28;20934;-55
2022/01/14 11:16:22;;;;;;;34.83;13.77;;;;;;;5.63;100.00;99613.44;5070289;28;20048;-55
2022/01/14 11:18:49;;;;;;;31.10;12.15;;;;;;;5.61;100.00;99612.56;5054080;28;20028;-55
2022/01/14 11:24:03;;;;;;;30.63;9.40;;;;;;;8.55;100.00;99627.06;5070248;28;20035;-55
2022/01/14 11:26:32;;;;;;;149.60;22.45;;;;;;;6.36;100.00;99612.84;5068290;28;20043;-55
2022/01/14 11:29:05;;;;;;;34.72;14.88;;;;;;;5.87;100.00;99612.66;5068041;28;20028;-55
2022/01/14 11:31:32;;;;;;;20.58;7.25;;;;;;;8.38;100.00;99625.41;5067062;28;20032;-53
2022/01/14 11:34:00;;;;;;;38.33;15.32;;;;;;;6.13;100.00;99604.16;5070198;28;20086;-54
2022/01/14 11:36:48;;;;;;;31.75;12.93;;;;;;;7.29;100.00;99599.84;5070108;28;20178;-53
2022/01/14 11:39:21;;;;;;;24.55;7.78;;;;;;;9.25;100.00;99610.00;5067597;28;20486;-54
2022/01/14 11:42:01;;;;;;;42.80;15.30;;;;;;;7.43;100.00;99603.28;5068595;28;20043;-54
2022/01/14 11:47:24;;;;;;;66.07;18.25;;;;;;;7.47;100.00;99594.63;5067581;28;20041;-54
2022/01/14 11:49:50;;;;;;;32.55;11.80;;;;;;;8.01;100.00;99580.53;5069980;28;20039;-54
2022/01/14 11:52:34;;;;;;;43.50;16.13;;;;;;;6.66;100.00;99579.16;5067466;28;20031;-53